sensor_id;sensor_type;location;lat;lon;timestamp;pressure;altitude;pressure_sealevel;temperature;humidity
16355;BME280;8287;51.644;8.494;2022-09-12T00:00:25;100602.28;;;16.30;79.47
16355;BME280;8287;51.644;8.494;2022-09-12T00:02:52;100600.72;;;16.29;79.44
16355;BME280;8287;51.644;8.494;2022-09-12T00:05:19;100597.84;;;16.34;79.88
16355;BME280;8287;51.644;8.494;2022-09-12T00:07:48;100591.84;;;16.37;79.96
16355;BME280;8287;51.644;8.494;2022-09-12T00:10:14;100596.88;;;16.39;79.18
16355;BME280;8287;51.644;8.494;2022-09-12T00:12:41;100595.72;;;16.28;79.31
16355;BME280;8287;51.644;8.494;2022-09-12T00:15:09;100588.94;;;16.18;80.06
16355;BME280;8287;51.644;8.494;2022-09-12T00:17:36;100582.56;;;16.23;79.42
16355;BME280;8287;51.644;8.494;2022-09-12T00:20:05;100587.38;;;16.17;79.00
16355;BME280;8287;51.644;8.494;2022-09-12T00:22:33;100585.13;;;16.19;79.24
16355;BME280;8287;51.644;8.494;2022-09-12T00:25:02;100582.47;;;16.19;79.60
16355;BME280;8287;51.644;8.494;2022-09-12T00:27:28;100582.56;;;16.23;79.35
16355;BME280;8287;51.644;8.494;2022-09-12T00:29:55;100576.25;;;16.15;79.54
16355;BME280;8287;51.644;8.494;2022-09-12T00:32:22;100580.34;;;16.13;79.33
16355;BME280;8287;51.644;8.494;2022-09-12T00:34:49;100583.47;;;16.15;78.65
16355;BME280;8287;51.644;8.494;2022-09-12T00:37:15;100579.69;;;16.16;78.26
16355;BME280;8287;51.644;8.494;2022-09-12T00:39:42;100580.03;;;16.14;78.28
16355;BME280;8287;51.644;8.494;2022-09-12T00:42:11;100578.69;;;16.08;78.46
16355;BME280;8287;51.644;8.494;2022-09-12T00:44:44;100580.56;;;16.08;78.37
16355;BME280;8287;51.644;8.494;2022-09-12T00:47:16;100574.00;;;16.05;78.29
16355;BME280;8287;51.644;8.494;2022-09-12T00:49:46;100566.22;;;16.00;78.14
16355;BME280;8287;51.644;8.494;2022-09-12T00:52:16;100572.31;;;16.01;78.01
16355;BME280;8287;51.644;8.494;2022-09-12T00:54:46;100567.31;;;15.99;78.16
16355;BME280;8287;51.644;8.494;2022-09-12T00:57:17;100568.31;;;15.95;78.56
16355;BME280;8287;51.644;8.494;2022-09-12T00:59:48;100562.19;;;15.82;78.79
16355;BME280;8287;51.644;8.494;2022-09-12T01:02:16;100561.50;;;15.73;79.66
16355;BME280;8287;51.644;8.494;2022-09-12T01:04:43;100565.41;;;15.76;78.70
16355;BME280;8287;51.644;8.494;2022-09-12T01:07:12;100571.72;;;15.71;78.05
16355;BME280;8287;51.644;8.494;2022-09-12T01:09:41;100569.28;;;15.66;78.64
16355;BME280;8287;51.644;8.494;2022-09-12T01:12:10;100561.91;;;15.51;79.80
16355;BME280;8287;51.644;8.494;2022-09-12T01:14:38;100559.22;;;15.51;78.56
16355;BME280;8287;51.644;8.494;2022-09-12T01:17:05;100559.69;;;15.53;78.94
16355;BME280;8287;51.644;8.494;2022-09-12T01:19:46;100560.53;;;15.45;79.31
16355;BME280;8287;51.644;8.494;2022-09-12T01:22:27;100557.41;;;15.31;80.23
16355;BME280;8287;51.644;8.494;2022-09-12T01:25:07;100558.75;;;15.37;79.79
16355;BME280;8287;51.644;8.494;2022-09-12T01:27:45;100560.53;;;15.45;79.95
16355;BME280;8287;51.644;8.494;2022-09-12T01:30:40;100557.19;;;15.36;78.12
16355;BME280;8287;51.644;8.494;2022-09-12T01:33:27;100562.25;;;15.29;78.66
16355;BME280;8287;51.644;8.494;2022-09-12T01:39:00;100556.56;;;15.19;78.81
16355;BME280;8287;51.644;8.494;2022-09-12T01:41:33;100557.66;;;15.18;79.47
16355;BME280;8287;51.644;8.494;2022-09-12T01:44:09;100554.88;;;15.14;79.20
16355;BME280;8287;51.644;8.494;2022-09-12T01:46:44;100544.38;;;15.09;79.04
16355;BME280;8287;51.644;8.494;2022-09-12T01:49:16;100551.41;;;15.14;78.47
16355;BME280;8287;51.644;8.494;2022-09-12T01:51:52;100555.06;;;15.09;79.17
16355;BME280;8287;51.644;8.494;2022-09-12T01:54:25;100550.31;;;14.94;79.74
16355;BME280;8287;51.644;8.494;2022-09-12T01:56:57;100550.59;;;15.01;79.49
16355;BME280;8287;51.644;8.494;2022-09-12T01:59:29;100551.38;;;15.02;79.93
16355;BME280;8287;51.644;8.494;2022-09-12T02:02:04;100537.06;;;15.06;79.57
16355;BME280;8287;51.644;8.494;2022-09-12T02:04:35;100531.59;;;15.03;79.69
16355;BME280;8287;51.644;8.494;2022-09-12T02:07:09;100539.16;;;15.01;79.33
16355;BME280;8287;51.644;8.494;2022-09-12T02:09:42;100524.56;;;14.98;78.66
16355;BME280;8287;51.644;8.494;2022-09-12T02:12:13;100522.75;;;14.90;78.71
16355;BME280;8287;51.644;8.494;2022-09-12T02:14:45;100527.16;;;14.86;79.56
16355;BME280;8287;51.644;8.494;2022-09-12T02:17:18;100521.34;;;14.52;81.85
16355;BME280;8287;51.644;8.494;2022-09-12T02:19:50;100514.81;;;14.61;81.88
16355;BME280;8287;51.644;8.494;2022-09-12T02:22:20;100518.66;;;14.72;81.65
16355;BME280;8287;51.644;8.494;2022-09-12T02:24:50;100513.13;;;14.77;80.81
16355;BME280;8287;51.644;8.494;2022-09-12T02:27:21;100513.69;;;14.83;80.27
16355;BME280;8287;51.644;8.494;2022-09-12T02:29:50;100518.84;;;14.88;79.75
16355;BME280;8287;51.644;8.494;2022-09-12T02:32:25;100516.50;;;14.86;79.55
16355;BME280;8287;51.644;8.494;2022-09-12T02:34:58;100513.91;;;14.78;80.47
16355;BME280;8287;51.644;8.494;2022-09-12T02:37:33;100517.69;;;14.77;80.77
16355;BME280;8287;51.644;8.494;2022-09-12T02:40:05;100513.00;;;14.74;79.76
16355;BME280;8287;51.644;8.494;2022-09-12T02:42:33;100519.53;;;14.64;82.03
16355;BME280;8287;51.644;8.494;2022-09-12T02:45:00;100518.19;;;14.70;81.43
16355;BME280;8287;51.644;8.494;2022-09-12T02:47:33;100519.66;;;14.68;81.14
16355;BME280;8287;51.644;8.494;2022-09-12T02:50:03;100517.97;;;14.63;80.55
16355;BME280;8287;51.644;8.494;2022-09-12T02:52:32;100518.59;;;14.60;80.50
16355;BME280;8287;51.644;8.494;2022-09-12T02:55:00;100494.16;;;14.58;81.08
16355;BME280;8287;51.644;8.494;2022-09-12T02:57:29;100507.75;;;14.65;80.44
16355;BME280;8287;51.644;8.494;2022-09-12T02:59:58;100503.69;;;14.59;79.73
16355;BME280;8287;51.644;8.494;2022-09-12T03:02:31;100506.59;;;14.54;80.92
16355;BME280;8287;51.644;8.494;2022-09-12T03:05:20;100500.72;;;14.61;80.71
16355;BME280;8287;51.644;8.494;2022-09-12T03:10:59;100506.44;;;14.51;80.64
16355;BME280;8287;51.644;8.494;2022-09-12T03:13:32;100494.19;;;14.50;81.45
16355;BME280;8287;51.644;8.494;2022-09-12T03:16:06;100497.53;;;14.47;81.31
16355;BME280;8287;51.644;8.494;2022-09-12T03:18:48;100495.78;;;14.51;81.59
16355;BME280;8287;51.644;8.494;2022-09-12T03:21:21;100492.97;;;14.47;81.17
16355;BME280;8287;51.644;8.494;2022-09-12T03:23:59;100491.28;;;14.43;81.33
16355;BME280;8287;51.644;8.494;2022-09-12T03:26:33;100488.94;;;14.41;80.95
16355;BME280;8287;51.644;8.494;2022-09-12T03:29:03;100492.28;;;14.38;81.05
16355;BME280;8287;51.644;8.494;2022-09-12T03:31:31;100490.56;;;14.34;81.80
16355;BME280;8287;51.644;8.494;2022-09-12T03:33:59;100494.94;;;14.38;81.12
16355;BME280;8287;51.644;8.494;2022-09-12T03:36:28;100501.25;;;14.34;80.79
16355;BME280;8287;51.644;8.494;2022-09-12T03:38:55;100501.28;;;14.25;81.32
16355;BME280;8287;51.644;8.494;2022-09-12T03:41:22;100504.25;;;14.24;81.14
16355;BME280;8287;51.644;8.494;2022-09-12T03:43:49;100502.84;;;14.26;80.96
16355;BME280;8287;51.644;8.494;2022-09-12T03:46:15;100502.06;;;14.26;81.61
16355;BME280;8287;51.644;8.494;2022-09-12T03:48:42;100486.97;;;14.30;81.32
16355;BME280;8287;51.644;8.494;2022-09-12T03:51:10;100495.28;;;14.28;81.09
16355;BME280;8287;51.644;8.494;2022-09-12T03:53:37;100493.28;;;14.25;80.43
16355;BME280;8287;51.644;8.494;2022-09-12T03:56:08;100501.00;;;14.18;81.17
16355;BME280;8287;51.644;8.494;2022-09-12T03:58:35;100494.75;;;14.14;80.74
16355;BME280;8287;51.644;8.494;2022-09-12T04:01:07;100493.81;;;14.10;80.62
16355;BME280;8287;51.644;8.494;2022-09-12T04:03:37;100490.97;;;14.15;80.87
16355;BME280;8287;51.644;8.494;2022-09-12T04:06:04;100494.31;;;14.12;80.37
16355;BME280;8287;51.644;8.494;2022-09-12T04:08:32;100497.31;;;14.02;81.12
16355;BME280;8287;51.644;8.494;2022-09-12T04:11:03;100497.31;;;14.02;81.91
16355;BME280;8287;51.644;8.494;2022-09-12T04:13:30;100493.19;;;14.13;82.04
16355;BME280;8287;51.644;8.494;2022-09-12T04:15:57;100491.47;;;14.17;81.27
16355;BME280;8287;51.644;8.494;2022-09-12T04:18:24;100497.59;;;14.09;80.93
16355;BME280;8287;51.644;8.494;2022-09-12T04:20:51;100498.03;;;14.11;81.48
16355;BME280;8287;51.644;8.494;2022-09-12T04:23:18;100493.50;;;14.12;81.22
16355;BME280;8287;51.644;8.494;2022-09-12T04:25:53;100501.47;;;14.20;81.55
16355;BME280;8287;51.644;8.494;2022-09-12T04:28:20;100502.25;;;14.21;81.50
16355;BME280;8287;51.644;8.494;2022-09-12T04:30:46;100500.38;;;14.13;80.48
16355;BME280;8287;51.644;8.494;2022-09-12T04:33:13;100500.56;;;14.08;79.57
16355;BME280;8287;51.644;8.494;2022-09-12T04:35:39;100501.88;;;14.02;80.65
16355;BME280;8287;51.644;8.494;2022-09-12T04:38:07;100502.34;;;13.95;80.52
16355;BME280;8287;51.644;8.494;2022-09-12T04:40:36;100502.63;;;14.02;81.81
16355;BME280;8287;51.644;8.494;2022-09-12T04:43:04;100499.66;;;14.04;81.06
16355;BME280;8287;51.644;8.494;2022-09-12T04:45:31;100507.81;;;13.99;80.47
16355;BME280;8287;51.644;8.494;2022-09-12T04:47:58;100509.53;;;14.03;80.16
16355;BME280;8287;51.644;8.494;2022-09-12T04:50:25;100500.47;;;14.04;79.75
16355;BME280;8287;51.644;8.494;2022-09-12T04:52:53;100499.38;;;13.97;79.53
16355;BME280;8287;51.644;8.494;2022-09-12T04:55:20;100500.03;;;13.94;80.76
16355;BME280;8287;51.644;8.494;2022-09-12T04:57:47;100494.06;;;13.97;80.61
16355;BME280;8287;51.644;8.494;2022-09-12T05:00:15;100489.09;;;13.87;81.18
16355;BME280;8287;51.644;8.494;2022-09-12T05:02:42;100492.56;;;13.87;80.45
16355;BME280;8287;51.644;8.494;2022-09-12T05:05:09;100493.97;;;13.85;80.54
16355;BME280;8287;51.644;8.494;2022-09-12T05:07:36;100490.50;;;13.84;81.10
16355;BME280;8287;51.644;8.494;2022-09-12T05:10:03;100497.88;;;13.87;80.95
16355;BME280;8287;51.644;8.494;2022-09-12T05:12:30;100498.84;;;13.83;81.04
16355;BME280;8287;51.644;8.494;2022-09-12T05:14:57;100490.22;;;13.86;81.28
16355;BME280;8287;51.644;8.494;2022-09-12T05:17:27;100491.78;;;13.78;81.80
16355;BME280;8287;51.644;8.494;2022-09-12T05:19:54;100490.38;;;13.81;81.66
16355;BME280;8287;51.644;8.494;2022-09-12T05:22:21;100489.59;;;13.80;81.91
16355;BME280;8287;51.644;8.494;2022-09-12T05:24:47;100492.13;;;13.77;81.86
16355;BME280;8287;51.644;8.494;2022-09-12T05:27:14;100490.38;;;13.81;82.71
16355;BME280;8287;51.644;8.494;2022-09-12T05:29:41;100490.84;;;13.83;82.38
16355;BME280;8287;51.644;8.494;2022-09-12T05:32:07;100495.69;;;13.81;82.70
16355;BME280;8287;51.644;8.494;2022-09-12T05:34:38;100485.19;;;13.84;82.74
16355;BME280;8287;51.644;8.494;2022-09-12T05:37:04;100492.72;;;13.82;82.65
16355;BME280;8287;51.644;8.494;2022-09-12T05:39:31;100482.72;;;13.79;83.63
16355;BME280;8287;51.644;8.494;2022-09-12T05:41:58;100492.88;;;13.86;83.59
16355;BME280;8287;51.644;8.494;2022-09-12T05:44:24;100483.25;;;13.93;83.68
16355;BME280;8287;51.644;8.494;2022-09-12T05:46:51;100488.59;;;13.93;83.59
16355;BME280;8287;51.644;8.494;2022-09-12T05:49:17;100486.19;;;14.00;83.18
16355;BME280;8287;51.644;8.494;2022-09-12T05:51:47;100487.25;;;14.08;83.17
16355;BME280;8287;51.644;8.494;2022-09-12T05:54:15;100490.19;;;14.15;83.00
16355;BME280;8287;51.644;8.494;2022-09-12T05:56:44;100489.25;;;14.19;83.43
16355;BME280;8287;51.644;8.494;2022-09-12T05:59:11;100488.94;;;14.21;82.83
16355;BME280;8287;51.644;8.494;2022-09-12T06:01:39;100491.59;;;14.21;84.20
16355;BME280;8287;51.644;8.494;2022-09-12T06:04:07;100485.28;;;14.25;84.92
16355;BME280;8287;51.644;8.494;2022-09-12T06:06:36;100483.72;;;14.24;86.21
16355;BME280;8287;51.644;8.494;2022-09-12T06:09:05;100485.25;;;14.34;86.42
16355;BME280;8287;51.644;8.494;2022-09-12T06:11:33;100481.22;;;14.48;86.96
16355;BME280;8287;51.644;8.494;2022-09-12T06:14:00;100472.81;;;14.58;87.76
16355;BME280;8287;51.644;8.494;2022-09-12T06:16:29;100470.97;;;14.71;88.33
16355;BME280;8287;51.644;8.494;2022-09-12T06:18:58;100470.03;;;14.87;89.08
16355;BME280;8287;51.644;8.494;2022-09-12T06:21:25;100469.53;;;15.06;88.96
16355;BME280;8287;51.644;8.494;2022-09-12T06:23:53;100466.38;;;15.24;89.08
16355;BME280;8287;51.644;8.494;2022-09-12T06:26:21;100459.31;;;15.40;87.94
16355;BME280;8287;51.644;8.494;2022-09-12T06:28:50;100464.63;;;15.52;85.96
16355;BME280;8287;51.644;8.494;2022-09-12T06:31:19;100475.78;;;15.66;85.83
16355;BME280;8287;51.644;8.494;2022-09-12T06:33:47;100463.66;;;15.81;84.55
16355;BME280;8287;51.644;8.494;2022-09-12T06:36:16;100473.56;;;15.92;84.12
16355;BME280;8287;51.644;8.494;2022-09-12T06:38:44;100471.09;;;15.99;84.31
16355;BME280;8287;51.644;8.494;2022-09-12T06:41:12;100464.84;;;16.07;83.71
16355;BME280;8287;51.644;8.494;2022-09-12T06:43:41;100461.28;;;16.15;83.80
16355;BME280;8287;51.644;8.494;2022-09-12T06:46:08;100467.03;;;16.29;83.75
16355;BME280;8287;51.644;8.494;2022-09-12T06:48:35;100461.25;;;16.39;83.44
16355;BME280;8287;51.644;8.494;2022-09-12T06:51:04;100457.66;;;16.47;83.66
16355;BME280;8287;51.644;8.494;2022-09-12T06:53:32;100463.28;;;16.58;83.51
16355;BME280;8287;51.644;8.494;2022-09-12T06:56:02;100452.19;;;16.71;83.44
16355;BME280;8287;51.644;8.494;2022-09-12T06:58:30;100451.63;;;16.77;85.20
16355;BME280;8287;51.644;8.494;2022-09-12T07:01:02;100456.06;;;16.85;85.12
16355;BME280;8287;51.644;8.494;2022-09-12T07:03:29;100444.59;;;17.00;84.23
16355;BME280;8287;51.644;8.494;2022-09-12T07:05:55;100439.06;;;17.09;86.22
16355;BME280;8287;51.644;8.494;2022-09-12T07:08:22;100436.78;;;17.23;85.53
16355;BME280;8287;51.644;8.494;2022-09-12T07:10:49;100444.41;;;17.36;86.28
16355;BME280;8287;51.644;8.494;2022-09-12T07:13:15;100436.19;;;17.45;87.31
16355;BME280;8287;51.644;8.494;2022-09-12T07:15:42;100432.38;;;17.61;87.10
16355;BME280;8287;51.644;8.494;2022-09-12T07:18:10;100436.81;;;17.88;84.90
16355;BME280;8287;51.644;8.494;2022-09-12T07:20:38;100441.09;;;18.08;83.92
16355;BME280;8287;51.644;8.494;2022-09-12T07:23:05;100435.38;;;18.29;83.36
16355;BME280;8287;51.644;8.494;2022-09-12T07:25:31;100435.06;;;18.49;82.01
16355;BME280;8287;51.644;8.494;2022-09-12T07:27:58;100440.06;;;18.70;81.77
16355;BME280;8287;51.644;8.494;2022-09-12T07:30:25;100451.56;;;18.89;79.61
16355;BME280;8287;51.644;8.494;2022-09-12T07:32:52;100439.19;;;19.04;78.80
16355;BME280;8287;51.644;8.494;2022-09-12T07:35:20;100446.44;;;19.22;76.54
16355;BME280;8287;51.644;8.494;2022-09-12T07:37:47;100445.66;;;19.44;76.54
16355;BME280;8287;51.644;8.494;2022-09-12T07:40:13;100456.28;;;19.60;75.72
16355;BME280;8287;51.644;8.494;2022-09-12T07:42:40;100447.19;;;19.68;75.36
16355;BME280;8287;51.644;8.494;2022-09-12T07:45:08;100448.13;;;19.79;74.40
16355;BME280;8287;51.644;8.494;2022-09-12T07:47:35;100447.53;;;19.92;74.23
16355;BME280;8287;51.644;8.494;2022-09-12T07:50:02;100443.75;;;19.97;74.19
16355;BME280;8287;51.644;8.494;2022-09-12T07:52:30;100451.72;;;20.12;73.22
16355;BME280;8287;51.644;8.494;2022-09-12T07:54:57;100440.03;;;20.31;73.83
16355;BME280;8287;51.644;8.494;2022-09-12T07:57:24;100443.03;;;20.55;73.09
16355;BME280;8287;51.644;8.494;2022-09-12T07:59:50;100452.13;;;20.76;71.21
16355;BME280;8287;51.644;8.494;2022-09-12T08:02:17;100448.13;;;20.96;70.89
16355;BME280;8287;51.644;8.494;2022-09-12T08:04:46;100453.56;;;21.03;70.40
16355;BME280;8287;51.644;8.494;2022-09-12T08:07:13;100447.25;;;21.25;69.36
16355;BME280;8287;51.644;8.494;2022-09-12T08:09:41;100460.81;;;21.39;68.99
16355;BME280;8287;51.644;8.494;2022-09-12T08:12:08;100451.66;;;21.47;67.81
16355;BME280;8287;51.644;8.494;2022-09-12T08:14:34;100453.25;;;21.55;67.01
16355;BME280;8287;51.644;8.494;2022-09-12T08:17:01;100455.28;;;21.65;67.39
16355;BME280;8287;51.644;8.494;2022-09-12T08:19:28;100454.00;;;21.52;66.26
16355;BME280;8287;51.644;8.494;2022-09-12T08:21:56;100460.44;;;21.81;67.02
16355;BME280;8287;51.644;8.494;2022-09-12T08:24:22;100465.44;;;21.82;65.24
16355;BME280;8287;51.644;8.494;2022-09-12T08:26:50;100474.44;;;22.00;65.16
16355;BME280;8287;51.644;8.494;2022-09-12T08:29:17;100452.88;;;22.11;65.56
16355;BME280;8287;51.644;8.494;2022-09-12T08:31:44;100465.59;;;22.07;64.96
16355;BME280;8287;51.644;8.494;2022-09-12T08:34:11;100463.41;;;22.26;64.78
16355;BME280;8287;51.644;8.494;2022-09-12T08:36:37;100461.91;;;22.39;64.84
16355;BME280;8287;51.644;8.494;2022-09-12T08:39:06;100463.09;;;22.42;65.01
16355;BME280;8287;51.644;8.494;2022-09-12T08:41:35;100466.91;;;22.37;65.25
16355;BME280;8287;51.644;8.494;2022-09-12T08:44:23;100463.13;;;22.45;63.77
16355;BME280;8287;51.644;8.494;2022-09-12T08:47:06;100456.66;;;22.67;64.58
16355;BME280;8287;51.644;8.494;2022-09-12T08:49:38;100461.69;;;22.76;63.53
16355;BME280;8287;51.644;8.494;2022-09-12T08:52:11;100457.09;;;22.94;62.44
16355;BME280;8287;51.644;8.494;2022-09-12T08:54:40;100458.63;;;22.98;62.42
16355;BME280;8287;51.644;8.494;2022-09-12T08:57:09;100455.16;;;22.87;61.50
16355;BME280;8287;51.644;8.494;2022-09-12T08:59:40;100457.88;;;23.08;61.96
16355;BME280;8287;51.644;8.494;2022-09-12T09:02:24;100454.84;;;23.20;60.88
16355;BME280;8287;51.644;8.494;2022-09-12T09:04:55;100452.91;;;23.28;61.24
16355;BME280;8287;51.644;8.494;2022-09-12T09:07:34;100458.31;;;23.28;58.92
16355;BME280;8287;51.644;8.494;2022-09-12T09:10:13;100449.84;;;23.40;59.49
16355;BME280;8287;51.644;8.494;2022-09-12T09:12:51;100445.56;;;23.53;58.10
16355;BME280;8287;51.644;8.494;2022-09-12T09:15:36;100447.13;;;23.36;58.02
16355;BME280;8287;51.644;8.494;2022-09-12T09:18:10;100440.94;;;23.64;58.13
16355;BME280;8287;51.644;8.494;2022-09-12T09:20:45;100446.72;;;23.76;55.24
16355;BME280;8287;51.644;8.494;2022-09-12T09:23:18;100445.56;;;23.77;54.11
16355;BME280;8287;51.644;8.494;2022-09-12T09:25:50;100442.09;;;23.87;54.44
16355;BME280;8287;51.644;8.494;2022-09-12T09:28:24;100440.53;;;23.93;55.39
16355;BME280;8287;51.644;8.494;2022-09-12T09:30:57;100439.75;;;23.96;55.25
16355;BME280;8287;51.644;8.494;2022-09-12T09:33:27;100433.53;;;24.06;54.50
16355;BME280;8287;51.644;8.494;2022-09-12T09:36:02;100429.66;;;24.07;54.10
16355;BME280;8287;51.644;8.494;2022-09-12T09:38:40;100431.97;;;24.19;54.17
16355;BME280;8287;51.644;8.494;2022-09-12T09:41:21;100434.66;;;24.19;53.69
16355;BME280;8287;51.644;8.494;2022-09-12T09:43:52;100426.47;;;24.29;54.24
16355;BME280;8287;51.644;8.494;2022-09-12T09:46:20;100431.50;;;24.34;54.44
16355;BME280;8287;51.644;8.494;2022-09-12T09:48:48;100423.75;;;24.36;53.10
16355;BME280;8287;51.644;8.494;2022-09-12T09:51:17;100429.13;;;24.43;53.49
16355;BME280;8287;51.644;8.494;2022-09-12T09:53:49;100430.66;;;24.48;53.08
16355;BME280;8287;51.644;8.494;2022-09-12T09:56:26;100434.19;;;24.38;53.02
16355;BME280;8287;51.644;8.494;2022-09-12T09:58:53;100430.28;;;24.46;51.99
16355;BME280;8287;51.644;8.494;2022-09-12T10:01:22;100425.63;;;24.57;51.37
16355;BME280;8287;51.644;8.494;2022-09-12T10:03:51;100425.19;;;24.65;51.70
16355;BME280;8287;51.644;8.494;2022-09-12T10:06:24;100422.81;;;24.74;51.96
16355;BME280;8287;51.644;8.494;2022-09-12T10:09:06;100426.75;;;24.63;49.93
16355;BME280;8287;51.644;8.494;2022-09-12T10:11:42;100422.53;;;24.58;50.66
16355;BME280;8287;51.644;8.494;2022-09-12T10:14:35;100424.44;;;24.61;51.79
16355;BME280;8287;51.644;8.494;2022-09-12T10:17:22;100418.59;;;24.70;51.14
16355;BME280;8287;51.644;8.494;2022-09-12T10:19:49;100422.03;;;24.74;51.78
16355;BME280;8287;51.644;8.494;2022-09-12T10:22:19;100417.38;;;24.78;50.94
16355;BME280;8287;51.644;8.494;2022-09-12T10:24:48;100416.97;;;24.76;49.85
16355;BME280;8287;51.644;8.494;2022-09-12T10:27:19;100414.28;;;24.76;49.48
16355;BME280;8287;51.644;8.494;2022-09-12T10:29:48;100407.28;;;24.78;50.78
16355;BME280;8287;51.644;8.494;2022-09-12T10:32:24;100402.53;;;24.93;50.73
16355;BME280;8287;51.644;8.494;2022-09-12T10:34:56;100401.63;;;25.13;51.55
16355;BME280;8287;51.644;8.494;2022-09-12T10:37:28;100398.84;;;25.24;50.18
16355;BME280;8287;51.644;8.494;2022-09-12T10:39:57;100392.47;;;24.97;49.88
16355;BME280;8287;51.644;8.494;2022-09-12T10:42:45;100393.97;;;25.01;51.69
16355;BME280;8287;51.644;8.494;2022-09-12T10:45:24;100394.22;;;25.21;50.42
16355;BME280;8287;51.644;8.494;2022-09-12T10:47:55;100384.91;;;25.25;50.04
16355;BME280;8287;51.644;8.494;2022-09-12T10:50:27;100381.84;;;25.16;50.56
16355;BME280;8287;51.644;8.494;2022-09-12T10:53:12;100395.13;;;25.04;48.53
16355;BME280;8287;51.644;8.494;2022-09-12T10:55:41;100384.22;;;25.11;49.35
16355;BME280;8287;51.644;8.494;2022-09-12T10:58:29;100383.06;;;25.08;49.56
16355;BME280;8287;51.644;8.494;2022-09-12T11:01:08;100386.13;;;25.14;50.68
16355;BME280;8287;51.644;8.494;2022-09-12T11:03:51;100377.56;;;25.19;51.18
16355;BME280;8287;51.644;8.494;2022-09-12T11:06:27;100380.38;;;25.05;51.51
16355;BME280;8287;51.644;8.494;2022-09-12T11:09:04;100376.13;;;25.04;51.97
16355;BME280;8287;51.644;8.494;2022-09-12T11:11:44;100374.44;;;25.24;50.89
16355;BME280;8287;51.644;8.494;2022-09-12T11:14:29;100376.56;;;25.46;50.25
16355;BME280;8287;51.644;8.494;2022-09-12T11:17:05;100372.16;;;25.63;49.40
16355;BME280;8287;51.644;8.494;2022-09-12T11:19:47;100365.47;;;25.71;49.71
16355;BME280;8287;51.644;8.494;2022-09-12T11:22:27;100367.06;;;25.65;48.08
16355;BME280;8287;51.644;8.494;2022-09-12T11:25:27;100372.53;;;25.61;46.31
16355;BME280;8287;51.644;8.494;2022-09-12T11:28:25;100359.31;;;25.63;46.88
16355;BME280;8287;51.644;8.494;2022-09-12T11:31:10;100359.38;;;25.97;47.78
16355;BME280;8287;51.644;8.494;2022-09-12T11:33:41;100360.25;;;26.20;45.78
16355;BME280;8287;51.644;8.494;2022-09-12T11:36:19;100363.41;;;26.15;44.83
16355;BME280;8287;51.644;8.494;2022-09-12T11:38:51;100355.38;;;26.35;45.92
16355;BME280;8287;51.644;8.494;2022-09-12T11:41:24;100349.09;;;26.41;43.86
16355;BME280;8287;51.644;8.494;2022-09-12T11:43:58;100350.09;;;26.54;43.54
16355;BME280;8287;51.644;8.494;2022-09-12T11:46:31;100349.50;;;26.70;42.07
16355;BME280;8287;51.644;8.494;2022-09-12T11:49:05;100342.88;;;26.11;44.06
16355;BME280;8287;51.644;8.494;2022-09-12T11:51:41;100334.28;;;26.72;46.21
16355;BME280;8287;51.644;8.494;2022-09-12T11:54:13;100339.47;;;27.13;43.62
16355;BME280;8287;51.644;8.494;2022-09-12T11:56:45;100337.81;;;27.42;44.38
16355;BME280;8287;51.644;8.494;2022-09-12T11:59:17;100347.25;;;27.57;43.86
16355;BME280;8287;51.644;8.494;2022-09-12T12:01:53;100341.25;;;27.46;40.98
16355;BME280;8287;51.644;8.494;2022-09-12T12:04:26;100345.28;;;27.57;41.37
16355;BME280;8287;51.644;8.494;2022-09-12T12:07:00;100338.38;;;27.72;41.47
16355;BME280;8287;51.644;8.494;2022-09-12T12:09:28;100335.03;;;27.65;40.97
16355;BME280;8287;51.644;8.494;2022-09-12T12:11:57;100330.50;;;27.58;42.40
16355;BME280;8287;51.644;8.494;2022-09-12T12:14:32;100324.34;;;27.74;43.35
16355;BME280;8287;51.644;8.494;2022-09-12T12:17:02;100338.53;;;27.85;42.33
16355;BME280;8287;51.644;8.494;2022-09-12T12:19:34;100327.34;;;27.60;42.33
16355;BME280;8287;51.644;8.494;2022-09-12T12:22:07;100317.09;;;27.48;42.09
16355;BME280;8287;51.644;8.494;2022-09-12T12:24:53;100322.69;;;26.95;44.24
16355;BME280;8287;51.644;8.494;2022-09-12T12:27:45;100315.59;;;26.48;45.19
16355;BME280;8287;51.644;8.494;2022-09-12T12:33:51;100307.66;;;26.87;45.16
16355;BME280;8287;51.644;8.494;2022-09-12T12:36:31;100301.38;;;27.13;45.97
16355;BME280;8287;51.644;8.494;2022-09-12T12:48:42;100292.72;;;27.60;42.01
16355;BME280;8287;51.644;8.494;2022-09-12T12:51:31;100296.34;;;27.73;44.34
16355;BME280;8287;51.644;8.494;2022-09-12T12:54:01;100284.81;;;28.05;42.05
16355;BME280;8287;51.644;8.494;2022-09-12T12:56:38;100291.13;;;28.17;40.46
16355;BME280;8287;51.644;8.494;2022-09-12T12:59:15;100286.88;;;28.16;43.86
16355;BME280;8287;51.644;8.494;2022-09-12T13:01:45;100280.75;;;28.13;41.94
16355;BME280;8287;51.644;8.494;2022-09-12T13:04:14;100281.59;;;28.09;44.64
16355;BME280;8287;51.644;8.494;2022-09-12T13:06:44;100280.91;;;28.57;43.20
16355;BME280;8287;51.644;8.494;2022-09-12T13:09:20;100269.81;;;28.80;43.08
16355;BME280;8287;51.644;8.494;2022-09-12T13:11:56;100269.16;;;28.76;41.73
16355;BME280;8287;51.644;8.494;2022-09-12T13:14:34;100263.44;;;28.54;41.49
16355;BME280;8287;51.644;8.494;2022-09-12T13:17:03;100266.72;;;27.95;43.66
16355;BME280;8287;51.644;8.494;2022-09-12T13:19:35;100265.69;;;28.08;43.12
16355;BME280;8287;51.644;8.494;2022-09-12T13:22:04;100261.88;;;28.21;43.75
16355;BME280;8287;51.644;8.494;2022-09-12T13:24:32;100261.47;;;28.03;43.43
16355;BME280;8287;51.644;8.494;2022-09-12T13:26:59;100255.88;;;28.26;42.38
16355;BME280;8287;51.644;8.494;2022-09-12T13:29:27;100242.06;;;28.69;40.83
16355;BME280;8287;51.644;8.494;2022-09-12T13:31:55;100241.03;;;28.47;40.15
16355;BME280;8287;51.644;8.494;2022-09-12T13:34:25;100232.25;;;28.55;42.78
16355;BME280;8287;51.644;8.494;2022-09-12T13:37:05;100227.81;;;28.45;42.33
16355;BME280;8287;51.644;8.494;2022-09-12T13:39:45;100235.81;;;27.66;42.42